sensor_id;sensor_type;location;lat;lon;timestamp;pressure;altitude;pressure_sealevel;temperature;humidity
35655;BME280;21773;50.010;19.972;2023-02-17T00:00:57;99325.06;;;8.80;46.83
35655;BME280;21773;50.010;19.972;2023-02-17T00:04:00;99322.59;;;8.78;46.97
35655;BME280;21773;50.010;19.972;2023-02-17T00:07:05;99320.50;;;8.80;46.87
35655;BME280;21773;50.010;19.972;2023-02-17T00:10:09;99317.00;;;8.80;47.03
35655;BME280;21773;50.010;19.972;2023-02-17T00:13:12;99324.88;;;8.81;47.00
35655;BME280;21773;50.010;19.972;2023-02-17T00:16:17;99302.91;;;8.71;47.06
35655;BME280;21773;50.010;19.972;2023-02-17T00:19:21;99299.38;;;8.70;46.99
35655;BME280;21773;50.010;19.972;2023-02-17T00:22:28;99311.66;;;8.86;47.07
35655;BME280;21773;50.010;19.972;2023-02-17T00:25:32;99311.03;;;8.91;46.54
35655;BME280;21773;50.010;19.972;2023-02-17T00:28:35;99326.16;;;8.92;46.51
35655;BME280;21773;50.010;19.972;2023-02-17T00:31:39;99302.75;;;8.86;46.42
35655;BME280;21773;50.010;19.972;2023-02-17T00:34:42;99315.16;;;8.87;46.32
35655;BME280;21773;50.010;19.972;2023-02-17T00:37:49;99306.03;;;8.75;46.72
35655;BME280;21773;50.010;19.972;2023-02-17T00:40:52;99308.03;;;8.66;46.94
35655;BME280;21773;50.010;19.972;2023-02-17T00:43:55;99302.84;;;8.58;47.26
35655;BME280;21773;50.010;19.972;2023-02-17T00:46:59;99299.28;;;8.51;47.64
35655;BME280;21773;50.010;19.972;2023-02-17T00:50:03;99297.41;;;8.45;47.86
35655;BME280;21773;50.010;19.972;2023-02-17T00:53:08;99285.97;;;8.36;48.40
35655;BME280;21773;50.010;19.972;2023-02-17T00:56:11;99287.13;;;8.27;48.70
35655;BME280;21773;50.010;19.972;2023-02-17T00:59:15;99285.38;;;8.13;49.39
35655;BME280;21773;50.010;19.972;2023-02-17T01:02:18;99279.50;;;8.03;49.83
35655;BME280;21773;50.010;19.972;2023-02-17T01:05:22;99287.63;;;8.09;49.73
35655;BME280;21773;50.010;19.972;2023-02-17T01:08:26;99276.00;;;8.02;50.19
35655;BME280;21773;50.010;19.972;2023-02-17T01:11:33;99280.75;;;8.00;50.40
35655;BME280;21773;50.010;19.972;2023-02-17T01:14:37;99257.53;;;7.93;50.24
35655;BME280;21773;50.010;19.972;2023-02-17T01:17:41;99271.69;;;8.01;50.48
35655;BME280;21773;50.010;19.972;2023-02-17T01:20:44;99262.56;;;8.02;50.38
35655;BME280;21773;50.010;19.972;2023-02-17T01:23:50;99236.47;;;7.90;50.13
35655;BME280;21773;50.010;19.972;2023-02-17T01:26:54;99248.53;;;8.00;50.55
35655;BME280;21773;50.010;19.972;2023-02-17T01:30:00;99243.81;;;8.09;50.14
35655;BME280;21773;50.010;19.972;2023-02-17T01:33:04;99239.34;;;8.16;49.92
35655;BME280;21773;50.010;19.972;2023-02-17T01:36:09;99241.19;;;8.15;49.87
35655;BME280;21773;50.010;19.972;2023-02-17T01:39:15;99232.91;;;8.10;49.77
35655;BME280;21773;50.010;19.972;2023-02-17T01:42:20;99232.69;;;8.12;49.80
35655;BME280;21773;50.010;19.972;2023-02-17T01:45:32;99224.00;;;8.10;49.80
35655;BME280;21773;50.010;19.972;2023-02-17T01:48:37;99221.31;;;8.10;50.04
35655;BME280;21773;50.010;19.972;2023-02-17T01:51:44;99208.44;;;7.99;49.89
35655;BME280;21773;50.010;19.972;2023-02-17T01:54:54;99205.81;;;8.05;49.90
35655;BME280;21773;50.010;19.972;2023-02-17T01:58:02;99204.34;;;8.03;49.94
35655;BME280;21773;50.010;19.972;2023-02-17T02:01:07;99213.22;;;8.03;49.74
35655;BME280;21773;50.010;19.972;2023-02-17T02:04:11;99209.28;;;7.99;50.25
35655;BME280;21773;50.010;19.972;2023-02-17T02:07:19;99221.22;;;7.97;50.34
35655;BME280;21773;50.010;19.972;2023-02-17T02:10:25;99210.47;;;7.97;50.33
35655;BME280;21773;50.010;19.972;2023-02-17T02:13:30;99208.84;;;7.96;50.49
35655;BME280;21773;50.010;19.972;2023-02-17T02:16:38;99216.91;;;7.96;50.38
35655;BME280;21773;50.010;19.972;2023-02-17T02:20:06;99213.56;;;7.94;50.65
35655;BME280;21773;50.010;19.972;2023-02-17T02:23:48;99205.94;;;7.97;50.56
35655;BME280;21773;50.010;19.972;2023-02-17T02:27:30;99206.59;;;7.99;50.63
35655;BME280;21773;50.010;19.972;2023-02-17T02:31:00;99208.50;;;8.05;50.49
35655;BME280;21773;50.010;19.972;2023-02-17T02:34:08;99214.09;;;8.10;50.41
35655;BME280;21773;50.010;19.972;2023-02-17T02:37:20;99208.97;;;8.15;50.36
35655;BME280;21773;50.010;19.972;2023-02-17T02:40:28;99219.53;;;8.23;50.19
35655;BME280;21773;50.010;19.972;2023-02-17T02:43:33;99222.09;;;8.32;50.10
35655;BME280;21773;50.010;19.972;2023-02-17T02:46:37;99215.72;;;8.39;49.94
35655;BME280;21773;50.010;19.972;2023-02-17T02:49:42;99179.00;;;8.18;49.86
35655;BME280;21773;50.010;19.972;2023-02-17T02:53:08;99225.47;;;8.47;49.81
35655;BME280;21773;50.010;19.972;2023-02-17T02:56:29;99226.72;;;8.51;49.59
35655;BME280;21773;50.010;19.972;2023-02-17T02:59:44;99224.44;;;8.48;49.80
35655;BME280;21773;50.010;19.972;2023-02-17T03:02:53;99193.78;;;8.36;49.66
35655;BME280;21773;50.010;19.972;2023-02-17T03:06:05;99217.44;;;8.53;49.43
35655;BME280;21773;50.010;19.972;2023-02-17T03:09:13;99218.00;;;8.42;49.50
35655;BME280;21773;50.010;19.972;2023-02-17T03:12:21;99208.78;;;8.23;49.81
35655;BME280;21773;50.010;19.972;2023-02-17T03:15:28;99212.94;;;8.26;49.96
35655;BME280;21773;50.010;19.972;2023-02-17T03:18:34;99208.28;;;8.07;50.51
35655;BME280;21773;50.010;19.972;2023-02-17T03:21:42;99201.22;;;7.99;50.67
35655;BME280;21773;50.010;19.972;2023-02-17T03:24:48;99204.88;;;7.92;51.04
35655;BME280;21773;50.010;19.972;2023-02-17T03:27:52;99213.09;;;7.83;51.00
35655;BME280;21773;50.010;19.972;2023-02-17T03:30:55;99201.75;;;7.81;51.13
35655;BME280;21773;50.010;19.972;2023-02-17T03:33:59;99202.53;;;7.82;51.02
35655;BME280;21773;50.010;19.972;2023-02-17T03:37:04;99194.03;;;7.72;51.46
35655;BME280;21773;50.010;19.972;2023-02-17T03:40:09;99193.81;;;7.73;51.26
35655;BME280;21773;50.010;19.972;2023-02-17T03:43:12;99190.53;;;7.71;51.33
35655;BME280;21773;50.010;19.972;2023-02-17T03:46:18;99179.47;;;7.60;51.12
35655;BME280;21773;50.010;19.972;2023-02-17T03:49:22;99195.25;;;7.69;51.48
35655;BME280;21773;50.010;19.972;2023-02-17T03:52:26;99182.06;;;7.74;51.43
35655;BME280;21773;50.010;19.972;2023-02-17T03:55:30;99188.25;;;7.75;51.73
35655;BME280;21773;50.010;19.972;2023-02-17T03:58:33;99186.66;;;7.80;51.53
35655;BME280;21773;50.010;19.972;2023-02-17T04:01:37;99193.09;;;7.86;51.44
35655;BME280;21773;50.010;19.972;2023-02-17T04:04:40;99192.88;;;7.88;51.09
35655;BME280;21773;50.010;19.972;2023-02-17T04:07:45;99186.25;;;7.83;51.06
35655;BME280;21773;50.010;19.972;2023-02-17T04:10:50;99158.75;;;7.75;51.18
35655;BME280;21773;50.010;19.972;2023-02-17T04:13:54;99173.25;;;7.87;51.06
35655;BME280;21773;50.010;19.972;2023-02-17T04:16:57;99170.78;;;7.86;51.18
35655;BME280;21773;50.010;19.972;2023-02-17T04:20:00;99177.78;;;7.80;51.44
35655;BME280;21773;50.010;19.972;2023-02-17T04:23:06;99167.66;;;7.82;51.46
35655;BME280;21773;50.010;19.972;2023-02-17T04:26:09;99169.56;;;7.88;51.39
35655;BME280;21773;50.010;19.972;2023-02-17T04:29:12;99182.78;;;7.90;51.55
35655;BME280;21773;50.010;19.972;2023-02-17T04:32:16;99179.56;;;8.01;51.23
35655;BME280;21773;50.010;19.972;2023-02-17T04:35:19;99172.75;;;8.05;51.40
35655;BME280;21773;50.010;19.972;2023-02-17T04:38:25;99169.06;;;8.12;51.03
35655;BME280;21773;50.010;19.972;2023-02-17T04:41:29;99168.28;;;8.18;50.87
35655;BME280;21773;50.010;19.972;2023-02-17T04:44:32;99156.50;;;8.19;51.11
35655;BME280;21773;50.010;19.972;2023-02-17T04:47:36;99159.38;;;8.18;51.27
35655;BME280;21773;50.010;19.972;2023-02-17T04:50:39;99149.25;;;8.13;51.11
35655;BME280;21773;50.010;19.972;2023-02-17T04:53:44;99158.66;;;8.31;50.85
35655;BME280;21773;50.010;19.972;2023-02-17T04:56:48;99156.63;;;8.39;50.54
35655;BME280;21773;50.010;19.972;2023-02-17T04:59:52;99152.50;;;8.43;50.44
35655;BME280;21773;50.010;19.972;2023-02-17T05:02:55;99146.72;;;8.46;50.30
35655;BME280;21773;50.010;19.972;2023-02-17T05:05:58;99153.56;;;8.49;50.20
35655;BME280;21773;50.010;19.972;2023-02-17T05:09:03;99161.63;;;8.55;49.93
35655;BME280;21773;50.010;19.972;2023-02-17T05:12:06;99157.09;;;8.62;49.72
35655;BME280;21773;50.010;19.972;2023-02-17T05:15:11;99161.22;;;8.65;49.62
35655;BME280;21773;50.010;19.972;2023-02-17T05:18:14;99148.41;;;8.60;49.75
35655;BME280;21773;50.010;19.972;2023-02-17T05:21:17;99123.19;;;8.55;49.41
35655;BME280;21773;50.010;19.972;2023-02-17T05:24:22;99148.44;;;8.67;49.40
35655;BME280;21773;50.010;19.972;2023-02-17T05:27:26;99146.78;;;8.66;49.48
35655;BME280;21773;50.010;19.972;2023-02-17T05:30:29;99142.44;;;8.72;49.27
35655;BME280;21773;50.010;19.972;2023-02-17T05:33:33;99133.34;;;8.73;48.92
35655;BME280;21773;50.010;19.972;2023-02-17T05:36:36;99137.69;;;8.80;48.91
35655;BME280;21773;50.010;19.972;2023-02-17T05:39:41;99144.75;;;8.81;48.72
35655;BME280;21773;50.010;19.972;2023-02-17T05:42:44;99145.53;;;8.75;48.93
35655;BME280;21773;50.010;19.972;2023-02-17T05:45:47;99142.84;;;8.75;48.83
35655;BME280;21773;50.010;19.972;2023-02-17T05:48:50;99146.81;;;8.79;48.77
35655;BME280;21773;50.010;19.972;2023-02-17T05:51:54;99150.13;;;8.81;48.49
35655;BME280;21773;50.010;19.972;2023-02-17T05:54:58;99143.91;;;8.81;48.67
35655;BME280;21773;50.010;19.972;2023-02-17T05:58:02;99136.69;;;8.88;48.63
35655;BME280;21773;50.010;19.972;2023-02-17T06:01:07;99135.88;;;8.94;48.38
35655;BME280;21773;50.010;19.972;2023-02-17T06:04:10;99138.56;;;9.00;48.33
35655;BME280;21773;50.010;19.972;2023-02-17T06:07:13;99139.00;;;9.04;48.38
35655;BME280;21773;50.010;19.972;2023-02-17T06:10:18;99129.47;;;9.01;48.35
35655;BME280;21773;50.010;19.972;2023-02-17T06:13:22;99131.72;;;9.04;48.20
35655;BME280;21773;50.010;19.972;2023-02-17T06:16:25;99131.13;;;9.09;48.11
35655;BME280;21773;50.010;19.972;2023-02-17T06:19:29;99127.00;;;9.13;47.91
35655;BME280;21773;50.010;19.972;2023-02-17T06:22:32;99110.00;;;9.19;47.79
35655;BME280;21773;50.010;19.972;2023-02-17T06:25:37;99088.91;;;9.16;47.52
35655;BME280;21773;50.010;19.972;2023-02-17T06:28:41;99112.69;;;9.39;47.37
35655;BME280;21773;50.010;19.972;2023-02-17T06:31:44;99112.06;;;9.50;47.08
35655;BME280;21773;50.010;19.972;2023-02-17T06:34:48;99096.50;;;9.58;46.58
35655;BME280;21773;50.010;19.972;2023-02-17T06:37:51;99092.16;;;9.71;46.43
35655;BME280;21773;50.010;19.972;2023-02-17T06:40:56;99089.22;;;9.79;45.96
35655;BME280;21773;50.010;19.972;2023-02-17T06:43:59;99094.97;;;9.95;45.71
35655;BME280;21773;50.010;19.972;2023-02-17T06:47:02;99095.97;;;10.08;45.44
35655;BME280;21773;50.010;19.972;2023-02-17T06:50:07;99090.78;;;10.19;45.27
35655;BME280;21773;50.010;19.972;2023-02-17T06:53:11;99096.31;;;10.31;45.01
35655;BME280;21773;50.010;19.972;2023-02-17T06:56:15;99102.28;;;10.39;44.75
35655;BME280;21773;50.010;19.972;2023-02-17T06:59:22;99108.44;;;10.53;44.72
35655;BME280;21773;50.010;19.972;2023-02-17T07:02:25;99114.34;;;10.68;44.62
35655;BME280;21773;50.010;19.972;2023-02-17T07:05:29;99120.47;;;10.82;44.65
35655;BME280;21773;50.010;19.972;2023-02-17T07:08:32;99120.44;;;10.89;44.12
35655;BME280;21773;50.010;19.972;2023-02-17T07:11:37;99113.94;;;10.96;44.12
35655;BME280;21773;50.010;19.972;2023-02-17T07:14:41;99119.03;;;11.11;44.09
35655;BME280;21773;50.010;19.972;2023-02-17T07:17:44;99113.13;;;11.20;44.08
35655;BME280;21773;50.010;19.972;2023-02-17T07:20:47;99119.69;;;11.31;43.88
35655;BME280;21773;50.010;19.972;2023-02-17T07:23:51;99124.66;;;11.34;43.62
35655;BME280;21773;50.010;19.972;2023-02-17T07:26:55;99123.59;;;11.35;43.39
35655;BME280;21773;50.010;19.972;2023-02-17T07:29:59;99115.66;;;11.40;43.64
35655;BME280;21773;50.010;19.972;2023-02-17T07:33:03;99114.00;;;11.39;43.61
35655;BME280;21773;50.010;19.972;2023-02-17T07:36:09;99116.34;;;11.36;43.69
35655;BME280;21773;50.010;19.972;2023-02-17T07:39:13;99116.94;;;11.38;43.80
35655;BME280;21773;50.010;19.972;2023-02-17T07:42:17;99113.28;;;11.50;43.72
35655;BME280;21773;50.010;19.972;2023-02-17T07:45:21;99117.97;;;11.61;43.76
35655;BME280;21773;50.010;19.972;2023-02-17T07:48:24;99097.34;;;11.67;43.65
35655;BME280;21773;50.010;19.972;2023-02-17T07:51:27;99114.50;;;11.79;43.41
35655;BME280;21773;50.010;19.972;2023-02-17T07:54:31;99094.91;;;11.84;43.13
35655;BME280;21773;50.010;19.972;2023-02-17T07:57:36;99087.63;;;11.84;43.16
35655;BME280;21773;50.010;19.972;2023-02-17T08:00:39;99095.22;;;11.94;42.74
35655;BME280;21773;50.010;19.972;2023-02-17T08:03:42;99087.25;;;11.99;42.79
35655;BME280;21773;50.010;19.972;2023-02-17T08:06:46;99081.41;;;12.02;42.80
35655;BME280;21773;50.010;19.972;2023-02-17T08:09:49;99074.88;;;12.09;43.02
35655;BME280;21773;50.010;19.972;2023-02-17T08:13:11;99084.16;;;12.13;43.05
35655;BME280;21773;50.010;19.972;2023-02-17T08:16:23;99066.16;;;12.26;42.96
35655;BME280;21773;50.010;19.972;2023-02-17T08:19:27;99072.56;;;12.43;42.85
35655;BME280;21773;50.010;19.972;2023-02-17T08:22:48;99065.94;;;12.69;42.51
35655;BME280;21773;50.010;19.972;2023-02-17T08:25:52;99061.50;;;12.86;42.33
35655;BME280;21773;50.010;19.972;2023-02-17T08:28:57;99050.25;;;13.00;42.37
35655;BME280;21773;50.010;19.972;2023-02-17T08:32:00;99046.78;;;13.23;42.42
35655;BME280;21773;50.010;19.972;2023-02-17T08:35:04;99052.66;;;13.55;42.02
35655;BME280;21773;50.010;19.972;2023-02-17T08:38:09;99061.91;;;14.46;40.60
35655;BME280;21773;50.010;19.972;2023-02-17T08:41:12;99061.84;;;15.52;39.09
35655;BME280;21773;50.010;19.972;2023-02-17T08:44:18;99061.66;;;15.97;37.98
35655;BME280;21773;50.010;19.972;2023-02-17T08:47:23;99048.56;;;16.16;37.71
35655;BME280;21773;50.010;19.972;2023-02-17T08:50:26;99047.16;;;16.35;37.22
35655;BME280;21773;50.010;19.972;2023-02-17T08:53:30;99044.59;;;16.77;36.93
35655;BME280;21773;50.010;19.972;2023-02-17T08:56:35;99041.34;;;17.07;36.51
35655;BME280;21773;50.010;19.972;2023-02-17T08:59:40;99038.09;;;17.94;35.25
35655;BME280;21773;50.010;19.972;2023-02-17T09:02:44;99037.19;;;18.36;34.77
35655;BME280;21773;50.010;19.972;2023-02-17T09:05:47;99037.47;;;18.39;34.37
35655;BME280;21773;50.010;19.972;2023-02-17T09:08:52;99032.47;;;18.16;34.31
35655;BME280;21773;50.010;19.972;2023-02-17T09:11:56;99028.75;;;17.80;34.97
35655;BME280;21773;50.010;19.972;2023-02-17T09:15:01;99024.69;;;17.41;35.30
35655;BME280;21773;50.010;19.972;2023-02-17T09:18:05;99040.78;;;17.05;35.96
35655;BME280;21773;50.010;19.972;2023-02-17T09:21:10;99025.78;;;16.71;36.85
35655;BME280;21773;50.010;19.972;2023-02-17T09:24:14;99026.19;;;16.36;37.55
35655;BME280;21773;50.010;19.972;2023-02-17T09:27:19;99022.59;;;16.09;38.35
35655;BME280;21773;50.010;19.972;2023-02-17T09:30:23;99020.72;;;15.87;39.19
35655;BME280;21773;50.010;19.972;2023-02-17T09:33:27;99019.47;;;15.73;39.88
35655;BME280;21773;50.010;19.972;2023-02-17T09:36:33;99006.16;;;15.55;40.44
35655;BME280;21773;50.010;19.972;2023-02-17T09:39:36;99006.09;;;15.33;40.98
35655;BME280;21773;50.010;19.972;2023-02-17T09:42:40;99012.84;;;15.31;41.84
35655;BME280;21773;50.010;19.972;2023-02-17T09:45:48;98992.28;;;15.01;41.92
35655;BME280;21773;50.010;19.972;2023-02-17T09:48:56;98993.63;;;14.99;43.06
35655;BME280;21773;50.010;19.972;2023-02-17T09:52:05;98985.63;;;14.92;43.54
35655;BME280;21773;50.010;19.972;2023-02-17T09:55:14;98986.88;;;14.85;44.56
35655;BME280;21773;50.010;19.972;2023-02-17T09:58:22;98993.84;;;14.97;44.46
35655;BME280;21773;50.010;19.972;2023-02-17T10:01:31;98994.91;;;14.96;44.39
35655;BME280;21773;50.010;19.972;2023-02-17T10:04:39;99001.84;;;15.04;44.30
35655;BME280;21773;50.010;19.972;2023-02-17T10:07:46;98996.16;;;15.05;44.58
35655;BME280;21773;50.010;19.972;2023-02-17T10:10:56;98992.94;;;14.92;44.69
35655;BME280;21773;50.010;19.972;2023-02-17T10:14:08;98986.13;;;14.89;44.78
35655;BME280;21773;50.010;19.972;2023-02-17T10:17:19;98983.81;;;14.81;44.97
35655;BME280;21773;50.010;19.972;2023-02-17T10:20:29;98971.81;;;14.77;45.02
35655;BME280;21773;50.010;19.972;2023-02-17T10:23:34;98972.00;;;14.70;45.02
35655;BME280;21773;50.010;19.972;2023-02-17T10:26:59;98963.44;;;14.79;45.12
35655;BME280;21773;50.010;19.972;2023-02-17T10:30:17;98971.00;;;14.77;45.26
35655;BME280;21773;50.010;19.972;2023-02-17T10:33:29;98964.66;;;14.71;45.28
35655;BME280;21773;50.010;19.972;2023-02-17T10:36:44;98968.69;;;14.68;45.25
35655;BME280;21773;50.010;19.972;2023-02-17T10:39:54;98936.47;;;14.55;45.28
35655;BME280;21773;50.010;19.972;2023-02-17T10:43:01;98945.75;;;14.59;45.67
35655;BME280;21773;50.010;19.972;2023-02-17T10:46:11;98937.63;;;14.59;45.72
35655;BME280;21773;50.010;19.972;2023-02-17T10:49:22;98943.69;;;14.66;45.61
35655;BME280;21773;50.010;19.972;2023-02-17T10:52:34;98936.38;;;14.50;46.36
35655;BME280;21773;50.010;19.972;2023-02-17T10:55:48;98941.81;;;14.50;46.43
35655;BME280;21773;50.010;19.972;2023-02-17T10:58:55;98936.13;;;14.52;46.94
35655;BME280;21773;50.010;19.972;2023-02-17T11:02:15;98925.34;;;14.57;46.81
35655;BME280;21773;50.010;19.972;2023-02-17T11:05:23;98930.13;;;14.50;47.28
35655;BME280;21773;50.010;19.972;2023-02-17T11:08:30;98898.22;;;14.40;47.05
35655;BME280;21773;50.010;19.972;2023-02-17T11:11:35;98921.03;;;14.27;47.75
35655;BME280;21773;50.010;19.972;2023-02-17T11:14:44;98913.28;;;14.19;47.75
35655;BME280;21773;50.010;19.972;2023-02-17T11:17:49;98902.19;;;14.04;48.64
35655;BME280;21773;50.010;19.972;2023-02-17T11:21:01;98900.38;;;14.10;49.11
35655;BME280;21773;50.010;19.972;2023-02-17T11:24:09;98894.47;;;14.13;48.61
35655;BME280;21773;50.010;19.972;2023-02-17T11:27:23;98895.94;;;14.04;48.89
35655;BME280;21773;50.010;19.972;2023-02-17T11:30:29;98888.19;;;13.96;48.91
35655;BME280;21773;50.010;19.972;2023-02-17T11:33:35;98879.69;;;13.75;49.28
35655;BME280;21773;50.010;19.972;2023-02-17T11:36:43;98886.75;;;13.76;49.35
35655;BME280;21773;50.010;19.972;2023-02-17T11:39:49;98877.63;;;13.54;49.19
35655;BME280;21773;50.010;19.972;2023-02-17T11:42:55;98886.75;;;13.48;49.44
35655;BME280;21773;50.010;19.972;2023-02-17T11:46:20;98875.00;;;13.42;49.62
35655;BME280;21773;50.010;19.972;2023-02-17T11:53:19;98867.94;;;13.30;50.36
35655;BME280;21773;50.010;19.972;2023-02-17T11:56:30;98856.22;;;13.13;50.87
35655;BME280;21773;50.010;19.972;2023-02-17T11:59:51;98841.03;;;13.23;50.98
35655;BME280;21773;50.010;19.972;2023-02-17T12:03:27;98843.00;;;13.28;50.10
35655;BME280;21773;50.010;19.972;2023-02-17T12:06:43;98840.81;;;13.13;50.19
35655;BME280;21773;50.010;19.972;2023-02-17T12:10:02;98835.00;;;13.10;50.29
35655;BME280;21773;50.010;19.972;2023-02-17T12:13:18;98825.84;;;13.11;50.36
35655;BME280;21773;50.010;19.972;2023-02-17T12:16:39;98830.81;;;13.02;50.67
35655;BME280;21773;50.010;19.972;2023-02-17T12:19:52;98825.72;;;13.06;51.12
35655;BME280;21773;50.010;19.972;2023-02-17T12:23:07;98821.47;;;13.10;50.30
35655;BME280;21773;50.010;19.972;2023-02-17T12:26:25;98820.69;;;13.09;50.25
35655;BME280;21773;50.010;19.972;2023-02-17T12:29:48;98821.59;;;13.15;49.97
35655;BME280;21773;50.010;19.972;2023-02-17T12:33:07;98822.19;;;13.28;49.58
35655;BME280;21773;50.010;19.972;2023-02-17T12:36:15;98814.81;;;13.40;49.21
35655;BME280;21773;50.010;19.972;2023-02-17T12:39:22;98819.16;;;13.53;49.23
35655;BME280;21773;50.010;19.972;2023-02-17T12:42:34;98824.06;;;13.56;49.00
35655;BME280;21773;50.010;19.972;2023-02-17T12:45:41;98815.94;;;13.56;48.90
35655;BME280;21773;50.010;19.972;2023-02-17T12:48:48;98811.13;;;13.58;48.89
35655;BME280;21773;50.010;19.972;2023-02-17T12:51:57;98813.00;;;13.58;49.20
35655;BME280;21773;50.010;19.972;2023-02-17T12:55:10;98809.06;;;13.37;49.65
35655;BME280;21773;50.010;19.972;2023-02-17T12:58:19;98793.59;;;13.21;49.75
35655;BME280;21773;50.010;19.972;2023-02-17T13:01:28;98803.22;;;13.28;49.72
35655;BME280;21773;50.010;19.972;2023-02-17T13:04:33;98790.84;;;13.32;49.50
35655;BME280;21773;50.010;19.972;2023-02-17T13:07:42;98787.81;;;13.29;49.80
35655;BME280;21773;50.010;19.972;2023-02-17T13:10:59;98796.81;;;13.34;50.19
35655;BME280;21773;50.010;19.972;2023-02-17T13:14:10;98784.19;;;13.23;50.06
35655;BME280;21773;50.010;19.972;2023-02-17T13:17:25;98787.41;;;13.37;49.69
35655;BME280;21773;50.010;19.972;2023-02-17T13:20:42;98784.41;;;13.50;49.26
35655;BME280;21773;50.010;19.972;2023-02-17T13:23:58;98775.56;;;13.26;49.68
35655;BME280;21773;50.010;19.972;2023-02-17T13:27:09;98765.13;;;13.18;49.95
35655;BME280;21773;50.010;19.972;2023-02-17T13:30:29;98752.59;;;13.29;49.79
35655;BME280;21773;50.010;19.972;2023-02-17T13:33:40;98763.81;;;13.21;50.03
35655;BME280;21773;50.010;19.972;2023-02-17T13:36:43;98753.66;;;13.28;50.00
35655;BME280;21773;50.010;19.972;2023-02-17T13:39:47;98752.78;;;13.39;49.60
35655;BME280;21773;50.010;19.972;2023-02-17T13:42:51;98747.28;;;13.34;49.84
35655;BME280;21773;50.010;19.972;2023-02-17T13:45:58;98744.03;;;13.20;50.24
35655;BME280;21773;50.010;19.972;2023-02-17T13:49:05;98729.78;;;13.25;50.25
35655;BME280;21773;50.010;19.972;2023-02-17T13:52:14;98727.00;;;13.36;49.95
35655;BME280;21773;50.010;19.972;2023-02-17T13:55:19;98722.50;;;13.42;49.72
35655;BME280;21773;50.010;19.972;2023-02-17T13:58:28;98714.25;;;13.49;49.40
35655;BME280;21773;50.010;19.972;2023-02-17T14:01:35;98717.34;;;13.40;49.65
35655;BME280;21773;50.010;19.972;2023-02-17T14:04:39;98710.28;;;13.39;49.88
35655;BME280;21773;50.010;19.972;2023-02-17T14:07:44;98700.63;;;13.43;49.59
35655;BME280;21773;50.010;19.972;2023-02-17T14:10:49;98692.91;;;13.52;49.63
35655;BME280;21773;50.010;19.972;2023-02-17T14:13:54;98689.13;;;13.53;49.23
35655;BME280;21773;50.010;19.972;2023-02-17T14:17:01;98690.19;;;13.52;49.41
35655;BME280;21773;50.010;19.972;2023-02-17T14:20:06;98678.22;;;13.48;49.55
35655;BME280;21773;50.010;19.972;2023-02-17T14:23:11;98674.03;;;13.57;49.43
35655;BME280;21773;50.010;19.972;2023-02-17T14:26:27;98672.97;;;13.58;49.48
35655;BME280;21773;50.010;19.972;2023-02-17T14:29:38;98670.97;;;13.70;49.33
35655;BME280;21773;50.010;19.972;2023-02-17T14:32:43;98668.44;;;13.64;49.45
35655;BME280;21773;50.010;19.972;2023-02-17T14:35:51;98669.53;;;13.63;49.50
35655;BME280;21773;50.010;19.972;2023-02-17T14:38:56;98659.44;;;13.58;49.50
35655;BME280;21773;50.010;19.972;2023-02-17T14:42:00;98646.34;;;13.55;49.40
35655;BME280;21773;50.010;19.972;2023-02-17T14:45:03;98645.28;;;13.39;49.85
35655;BME280;21773;50.010;19.972;2023-02-17T14:48:09;98654.00;;;13.41;50.03
35655;BME280;21773;50.010;19.972;2023-02-17T14:51:14;98598.69;;;13.21;50.34
35655;BME280;21773;50.010;19.972;2023-02-17T14:54:18;98635.28;;;13.40;50.11
35655;BME280;21773;50.010;19.972;2023-02-17T14:57:25;98636.91;;;13.41;50.18
35655;BME280;21773;50.010;19.972;2023-02-17T15:00:29;98623.44;;;13.29;50.55
35655;BME280;21773;50.010;19.972;2023-02-17T15:03:33;98627.56;;;13.32;50.42
35655;BME280;21773;50.010;19.972;2023-02-17T15:06:39;98620.41;;;13.26;50.99
35655;BME280;21773;50.010;19.972;2023-02-17T15:09:43;98624.94;;;13.37;50.56
35655;BME280;21773;50.010;19.972;2023-02-17T15:12:47;98612.47;;;13.53;50.26
35655;BME280;21773;50.010;19.972;2023-02-17T15:15:50;98609.41;;;13.49;50.61
35655;BME280;21773;50.010;19.972;2023-02-17T15:18:55;98616.25;;;13.35;51.26
35655;BME280;21773;50.010;19.972;2023-02-17T15:21:59;98602.63;;;13.30;51.34
35655;BME280;21773;50.010;19.972;2023-02-17T15:25:10;98600.34;;;13.38;51.60
35655;BME280;21773;50.010;19.972;2023-02-17T15:28:16;98600.66;;;13.42;51.68
35655;BME280;21773;50.010;19.972;2023-02-17T15:31:20;98589.75;;;13.37;52.02
35655;BME280;21773;50.010;19.972;2023-02-17T15:34:28;98591.88;;;13.35;52.20
35655;BME280;21773;50.010;19.972;2023-02-17T15:37:32;98578.09;;;13.36;52.45
35655;BME280;21773;50.010;19.972;2023-02-17T15:40:36;98574.81;;;13.18;53.33
35655;BME280;21773;50.010;19.972;2023-02-17T15:43:39;98569.88;;;13.15;53.64
35655;BME280;21773;50.010;19.972;2023-02-17T15:46:43;98559.66;;;13.17;53.79
35655;BME280;21773;50.010;19.972;2023-02-17T15:49:48;98561.66;;;13.10;53.90
35655;BME280;21773;50.010;19.972;2023-02-17T15:52:52;98548.44;;;12.96;54.19
35655;BME280;21773;50.010;19.972;2023-02-17T15:55:55;98541.56;;;12.89;54.56
35655;BME280;21773;50.010;19.972;2023-02-17T15:59:07;98533.19;;;12.90;54.65
35655;BME280;21773;50.010;19.972;2023-02-17T16:02:17;98523.59;;;12.83;54.86
35655;BME280;21773;50.010;19.972;2023-02-17T16:05:25;98521.13;;;12.81;54.74
35655;BME280;21773;50.010;19.972;2023-02-17T16:08:29;98522.28;;;12.69;55.60
35655;BME280;21773;50.010;19.972;2023-02-17T16:11:33;98510.53;;;12.63;55.64
35655;BME280;21773;50.010;19.972;2023-02-17T16:14:38;98499.00;;;12.51;55.99
35655;BME280;21773;50.010;19.972;2023-02-17T16:17:41;98502.16;;;12.48;55.99
35655;BME280;21773;50.010;19.972;2023-02-17T16:20:46;98496.56;;;12.38;56.28
35655;BME280;21773;50.010;19.972;2023-02-17T16:23:50;98499.53;;;12.36;56.55
35655;BME280;21773;50.010;19.972;2023-02-17T16:27:00;98488.00;;;12.41;56.33